Claverack, New York
Current Conditions -  °F | °C
As of 5:17 PM on Thursday 23 Oct 2014 (Local Time) from KPSF Reporting Station
Overcast Overcast  
Wind Chill: 41°   Ceiling: 1300
Heat Index: 45°   Visibility: 10mi
Dew Point: 42°   Wind: 7mph
Humidity: 90%   Direction: 270°W
Pressure: 29.73"   Gusts: NA
Location:  42.23°N, 73.73°W
Report Text: KPSF 232117Z AUTO 27006KT 10SM OVC013 07/06 A2973 RMK AO2 T00720056
Loading
Personal Weather Stations






























Interactive Weather Map
Tropical Storm Tracking
New forecast layout! Learn more

10-Day Weather Forecast

Advertisements
Track Severe Weather on mobile